sensor_id;sensor_type;location;lat;lon;timestamp;temperature;humidity
25410;DHT22;13339;50.840;4.346;2022-09-20T00:00:40;15.50;99.90
25410;DHT22;13339;50.840;4.346;2022-09-20T00:03:06;15.40;99.90
25410;DHT22;13339;50.840;4.346;2022-09-20T00:05:34;15.40;99.90
25410;DHT22;13339;50.840;4.346;2022-09-20T00:08:01;15.30;99.90
25410;DHT22;13339;50.840;4.346;2022-09-20T00:10:27;15.20;99.90
25410;DHT22;13339;50.840;4.346;2022-09-20T00:12:54;15.20;99.90
25410;DHT22;13339;50.840;4.346;2022-09-20T00:15:19;15.10;99.90
25410;DHT22;13339;50.840;4.346;2022-09-20T00:17:45;15.20;99.90
25410;DHT22;13339;50.840;4.346;2022-09-20T00:20:10;15.10;99.90
25410;DHT22;13339;50.840;4.346;2022-09-20T00:22:36;14.90;99.90
25410;DHT22;13339;50.840;4.346;2022-09-20T00:25:01;14.90;99.90
25410;DHT22;13339;50.840;4.346;2022-09-20T00:27:27;15.00;99.90
25410;DHT22;13339;50.840;4.346;2022-09-20T00:29:52;15.10;99.90
25410;DHT22;13339;50.840;4.346;2022-09-20T00:32:18;15.10;99.90
25410;DHT22;13339;50.840;4.346;2022-09-20T00:34:44;15.10;99.90
25410;DHT22;13339;50.840;4.346;2022-09-20T00:37:28;15.20;99.90
25410;DHT22;13339;50.840;4.346;2022-09-20T00:39:54;15.00;99.90
25410;DHT22;13339;50.840;4.346;2022-09-20T00:42:26;15.00;99.90
25410;DHT22;13339;50.840;4.346;2022-09-20T00:44:55;14.90;99.90
25410;DHT22;13339;50.840;4.346;2022-09-20T00:47:33;14.90;99.90
25410;DHT22;13339;50.840;4.346;2022-09-20T00:53:15;14.60;99.90
25410;DHT22;13339;50.840;4.346;2022-09-20T00:55:46;14.60;99.90
25410;DHT22;13339;50.840;4.346;2022-09-20T00:58:15;14.60;99.90
25410;DHT22;13339;50.840;4.346;2022-09-20T01:00:42;14.70;99.90
25410;DHT22;13339;50.840;4.346;2022-09-20T01:03:10;14.70;99.90
25410;DHT22;13339;50.840;4.346;2022-09-20T01:05:37;14.70;99.90
25410;DHT22;13339;50.840;4.346;2022-09-20T01:08:04;14.70;99.90
25410;DHT22;13339;50.840;4.346;2022-09-20T01:10:31;14.70;99.90
25410;DHT22;13339;50.840;4.346;2022-09-20T01:12:57;14.80;99.90
25410;DHT22;13339;50.840;4.346;2022-09-20T01:15:23;14.80;99.90
25410;DHT22;13339;50.840;4.346;2022-09-20T01:17:53;14.80;99.90
25410;DHT22;13339;50.840;4.346;2022-09-20T01:20:23;14.80;99.90
25410;DHT22;13339;50.840;4.346;2022-09-20T01:28:27;14.80;99.90
25410;DHT22;13339;50.840;4.346;2022-09-20T01:36:04;14.70;99.90
25410;DHT22;13339;50.840;4.346;2022-09-20T01:38:45;14.70;99.90
25410;DHT22;13339;50.840;4.346;2022-09-20T01:41:14;14.60;99.90
25410;DHT22;13339;50.840;4.346;2022-09-20T01:46:34;14.60;99.90
25410;DHT22;13339;50.840;4.346;2022-09-20T02:03:43;14.50;99.90
25410;DHT22;13339;50.840;4.346;2022-09-20T02:14:39;14.40;99.90
25410;DHT22;13339;50.840;4.346;2022-09-20T02:17:13;14.40;99.90
25410;DHT22;13339;50.840;4.346;2022-09-20T02:22:39;14.30;99.90
25410;DHT22;13339;50.840;4.346;2022-09-20T02:28:22;14.40;99.90
25410;DHT22;13339;50.840;4.346;2022-09-20T02:33:38;14.40;99.90
25410;DHT22;13339;50.840;4.346;2022-09-20T02:39:20;14.30;99.90
25410;DHT22;13339;50.840;4.346;2022-09-20T02:42:02;14.40;99.90
25410;DHT22;13339;50.840;4.346;2022-09-20T02:47:30;14.30;99.90
25410;DHT22;13339;50.840;4.346;2022-09-20T02:50:18;14.20;99.90
25410;DHT22;13339;50.840;4.346;2022-09-20T02:57:59;14.30;99.90
25410;DHT22;13339;50.840;4.346;2022-09-20T03:00:37;14.30;99.90
25410;DHT22;13339;50.840;4.346;2022-09-20T03:03:09;14.30;99.90
25410;DHT22;13339;50.840;4.346;2022-09-20T03:05:52;14.30;99.90
25410;DHT22;13339;50.840;4.346;2022-09-20T03:09:42;14.20;99.90
25410;DHT22;13339;50.840;4.346;2022-09-20T03:14:27;14.30;99.90
25410;DHT22;13339;50.840;4.346;2022-09-20T03:30:53;14.40;99.90
25410;DHT22;13339;50.840;4.346;2022-09-20T03:36:04;14.50;99.90
25410;DHT22;13339;50.840;4.346;2022-09-20T03:41:41;14.40;99.90
25410;DHT22;13339;50.840;4.346;2022-09-20T03:44:27;14.30;99.90
25410;DHT22;13339;50.840;4.346;2022-09-20T03:58:33;14.10;99.90
25410;DHT22;13339;50.840;4.346;2022-09-20T04:01:13;14.10;99.90
25410;DHT22;13339;50.840;4.346;2022-09-20T04:12:13;14.30;99.90
25410;DHT22;13339;50.840;4.346;2022-09-20T04:15:03;14.20;99.90
25410;DHT22;13339;50.840;4.346;2022-09-20T04:18:40;14.30;99.90
25410;DHT22;13339;50.840;4.346;2022-09-20T04:21:04;14.30;99.90
25410;DHT22;13339;50.840;4.346;2022-09-20T04:26:07;14.30;99.90
25410;DHT22;13339;50.840;4.346;2022-09-20T04:28:46;14.00;99.90
25410;DHT22;13339;50.840;4.346;2022-09-20T04:34:30;14.00;99.90
25410;DHT22;13339;50.840;4.346;2022-09-20T04:37:26;14.00;99.90
25410;DHT22;13339;50.840;4.346;2022-09-20T04:45:46;13.80;99.90
25410;DHT22;13339;50.840;4.346;2022-09-20T04:59:23;13.80;99.90
25410;DHT22;13339;50.840;4.346;2022-09-20T05:08:08;13.70;99.90
25410;DHT22;13339;50.840;4.346;2022-09-20T05:10:52;13.70;99.90
25410;DHT22;13339;50.840;4.346;2022-09-20T05:13:45;13.70;99.90
25410;DHT22;13339;50.840;4.346;2022-09-20T05:16:28;13.80;99.90
25410;DHT22;13339;50.840;4.346;2022-09-20T05:21:43;13.70;99.90
25410;DHT22;13339;50.840;4.346;2022-09-20T05:30:02;13.80;99.90
25410;DHT22;13339;50.840;4.346;2022-09-20T05:32:54;13.80;99.90
25410;DHT22;13339;50.840;4.346;2022-09-20T05:36:02;13.90;99.90
25410;DHT22;13339;50.840;4.346;2022-09-20T05:38:50;13.90;99.90
25410;DHT22;13339;50.840;4.346;2022-09-20T05:41:44;13.90;99.90
25410;DHT22;13339;50.840;4.346;2022-09-20T05:47:17;13.80;99.90
25410;DHT22;13339;50.840;4.346;2022-09-20T06:03:52;13.80;99.90
25410;DHT22;13339;50.840;4.346;2022-09-20T06:14:59;13.60;99.90
25410;DHT22;13339;50.840;4.346;2022-09-20T06:17:33;13.70;99.90
25410;DHT22;13339;50.840;4.346;2022-09-20T06:20:23;13.70;99.90
25410;DHT22;13339;50.840;4.346;2022-09-20T06:22:53;13.60;99.90
25410;DHT22;13339;50.840;4.346;2022-09-20T06:25:33;13.60;99.90
25410;DHT22;13339;50.840;4.346;2022-09-20T06:28:29;13.60;99.90
25410;DHT22;13339;50.840;4.346;2022-09-20T06:30:54;13.70;99.90
25410;DHT22;13339;50.840;4.346;2022-09-20T06:33:26;13.80;99.90
25410;DHT22;13339;50.840;4.346;2022-09-20T06:36:16;13.80;99.90
25410;DHT22;13339;50.840;4.346;2022-09-20T06:42:14;13.80;99.90
25410;DHT22;13339;50.840;4.346;2022-09-20T06:44:40;13.90;99.90
25410;DHT22;13339;50.840;4.346;2022-09-20T06:47:11;13.60;99.90
25410;DHT22;13339;50.840;4.346;2022-09-20T06:49:37;13.70;99.90
25410;DHT22;13339;50.840;4.346;2022-09-20T06:52:11;13.70;99.90
25410;DHT22;13339;50.840;4.346;2022-09-20T06:54:38;13.80;99.90
25410;DHT22;13339;50.840;4.346;2022-09-20T06:57:14;13.80;99.90
25410;DHT22;13339;50.840;4.346;2022-09-20T06:59:41;13.80;99.90
25410;DHT22;13339;50.840;4.346;2022-09-20T07:02:06;13.90;99.90
25410;DHT22;13339;50.840;4.346;2022-09-20T07:04:33;13.90;99.90
25410;DHT22;13339;50.840;4.346;2022-09-20T07:07:00;14.00;99.90
25410;DHT22;13339;50.840;4.346;2022-09-20T07:09:26;14.00;99.90
25410;DHT22;13339;50.840;4.346;2022-09-20T07:11:52;13.90;99.90
25410;DHT22;13339;50.840;4.346;2022-09-20T07:14:19;14.00;99.90
25410;DHT22;13339;50.840;4.346;2022-09-20T07:16:45;13.90;99.90
25410;DHT22;13339;50.840;4.346;2022-09-20T07:19:10;14.00;99.90
25410;DHT22;13339;50.840;4.346;2022-09-20T07:21:36;14.00;99.90
25410;DHT22;13339;50.840;4.346;2022-09-20T07:24:01;14.00;99.90
25410;DHT22;13339;50.840;4.346;2022-09-20T07:26:29;14.10;99.90
25410;DHT22;13339;50.840;4.346;2022-09-20T07:28:57;14.30;99.90
25410;DHT22;13339;50.840;4.346;2022-09-20T07:31:25;14.40;99.90
25410;DHT22;13339;50.840;4.346;2022-09-20T07:33:51;14.30;99.90
25410;DHT22;13339;50.840;4.346;2022-09-20T07:36:17;14.50;99.90
25410;DHT22;13339;50.840;4.346;2022-09-20T07:38:47;14.60;99.90
25410;DHT22;13339;50.840;4.346;2022-09-20T07:41:13;14.60;99.90
25410;DHT22;13339;50.840;4.346;2022-09-20T07:43:38;14.60;99.90
25410;DHT22;13339;50.840;4.346;2022-09-20T07:46:04;14.70;99.90
25410;DHT22;13339;50.840;4.346;2022-09-20T07:48:32;14.70;99.90
25410;DHT22;13339;50.840;4.346;2022-09-20T07:51:03;14.80;99.90
25410;DHT22;13339;50.840;4.346;2022-09-20T07:53:29;14.90;99.90
25410;DHT22;13339;50.840;4.346;2022-09-20T07:58:34;16.10;99.90
25410;DHT22;13339;50.840;4.346;2022-09-20T08:01:03;16.80;99.90
25410;DHT22;13339;50.840;4.346;2022-09-20T08:03:31;17.20;99.90
25410;DHT22;13339;50.840;4.346;2022-09-20T08:06:07;17.40;99.90
25410;DHT22;13339;50.840;4.346;2022-09-20T08:08:39;17.60;99.90
25410;DHT22;13339;50.840;4.346;2022-09-20T08:11:16;17.60;99.90
25410;DHT22;13339;50.840;4.346;2022-09-20T08:13:47;17.70;99.90
25410;DHT22;13339;50.840;4.346;2022-09-20T08:16:15;17.70;99.90
25410;DHT22;13339;50.840;4.346;2022-09-20T08:18:51;17.60;99.90
25410;DHT22;13339;50.840;4.346;2022-09-20T08:21:18;17.70;99.90
25410;DHT22;13339;50.840;4.346;2022-09-20T08:23:45;17.40;99.90
25410;DHT22;13339;50.840;4.346;2022-09-20T08:26:14;17.30;99.90
25410;DHT22;13339;50.840;4.346;2022-09-20T08:28:43;17.30;99.90
25410;DHT22;13339;50.840;4.346;2022-09-20T08:31:14;17.30;99.90
25410;DHT22;13339;50.840;4.346;2022-09-20T08:33:41;17.10;99.90
25410;DHT22;13339;50.840;4.346;2022-09-20T08:36:11;17.10;99.90
25410;DHT22;13339;50.840;4.346;2022-09-20T08:38:36;17.20;99.90
25410;DHT22;13339;50.840;4.346;2022-09-20T08:41:28;17.30;99.90
25410;DHT22;13339;50.840;4.346;2022-09-20T08:46:46;17.50;99.90
25410;DHT22;13339;50.840;4.346;2022-09-20T08:49:25;17.50;99.90
25410;DHT22;13339;50.840;4.346;2022-09-20T08:51:52;17.70;99.90
25410;DHT22;13339;50.840;4.346;2022-09-20T08:54:19;17.90;99.90
25410;DHT22;13339;50.840;4.346;2022-09-20T08:56:48;17.90;99.90
25410;DHT22;13339;50.840;4.346;2022-09-20T08:59:18;18.10;99.90
25410;DHT22;13339;50.840;4.346;2022-09-20T09:01:46;18.00;99.90
25410;DHT22;13339;50.840;4.346;2022-09-20T09:04:19;18.20;99.90
25410;DHT22;13339;50.840;4.346;2022-09-20T09:06:46;18.20;99.90
25410;DHT22;13339;50.840;4.346;2022-09-20T09:09:21;18.30;99.90
25410;DHT22;13339;50.840;4.346;2022-09-20T09:11:48;18.30;99.90
25410;DHT22;13339;50.840;4.346;2022-09-20T09:14:28;18.50;99.90
25410;DHT22;13339;50.840;4.346;2022-09-20T09:17:15;18.50;99.90
25410;DHT22;13339;50.840;4.346;2022-09-20T09:22:42;18.50;99.90
25410;DHT22;13339;50.840;4.346;2022-09-20T09:30:37;18.30;99.90
25410;DHT22;13339;50.840;4.346;2022-09-20T09:36:05;18.50;99.90
25410;DHT22;13339;50.840;4.346;2022-09-20T09:41:01;18.50;99.90
25410;DHT22;13339;50.840;4.346;2022-09-20T09:43:32;18.70;99.90
25410;DHT22;13339;50.840;4.346;2022-09-20T09:46:22;18.90;99.90
25410;DHT22;13339;50.840;4.346;2022-09-20T09:49:23;19.00;99.90
25410;DHT22;13339;50.840;4.346;2022-09-20T09:54:42;19.00;99.90
25410;DHT22;13339;50.840;4.346;2022-09-20T09:57:21;19.00;99.90
25410;DHT22;13339;50.840;4.346;2022-09-20T10:00:01;19.10;99.90
25410;DHT22;13339;50.840;4.346;2022-09-20T10:05:49;19.30;99.90
25410;DHT22;13339;50.840;4.346;2022-09-20T10:27:55;18.50;99.90
25410;DHT22;13339;50.840;4.346;2022-09-20T10:30:27;18.50;99.90
25410;DHT22;13339;50.840;4.346;2022-09-20T10:33:09;18.50;99.90
25410;DHT22;13339;50.840;4.346;2022-09-20T10:41:14;18.90;99.90
25410;DHT22;13339;50.840;4.346;2022-09-20T10:57:23;19.30;99.90
25410;DHT22;13339;50.840;4.346;2022-09-20T11:08:19;19.10;99.90
25410;DHT22;13339;50.840;4.346;2022-09-20T11:11:08;18.90;99.90
25410;DHT22;13339;50.840;4.346;2022-09-20T11:13:46;18.60;99.90
25410;DHT22;13339;50.840;4.346;2022-09-20T11:16:18;18.30;99.90
25410;DHT22;13339;50.840;4.346;2022-09-20T11:21:37;17.80;99.90
25410;DHT22;13339;50.840;4.346;2022-09-20T11:24:27;17.60;99.90
25410;DHT22;13339;50.840;4.346;2022-09-20T11:31:49;18.00;99.90
25410;DHT22;13339;50.840;4.346;2022-09-20T11:34:25;18.20;99.90
25410;DHT22;13339;50.840;4.346;2022-09-20T11:36:55;18.30;99.90
25410;DHT22;13339;50.840;4.346;2022-09-20T11:39:41;18.50;99.90
25410;DHT22;13339;50.840;4.346;2022-09-20T11:42:20;18.60;99.90
25410;DHT22;13339;50.840;4.346;2022-09-20T11:44:46;18.80;99.90
25410;DHT22;13339;50.840;4.346;2022-09-20T11:47:34;18.70;99.90
25410;DHT22;13339;50.840;4.346;2022-09-20T11:50:31;18.80;99.90
25410;DHT22;13339;50.840;4.346;2022-09-20T11:55:50;19.00;99.90
25410;DHT22;13339;50.840;4.346;2022-09-20T11:58:19;19.20;99.90
25410;DHT22;13339;50.840;4.346;2022-09-20T12:00:49;19.20;99.90
25410;DHT22;13339;50.840;4.346;2022-09-20T12:05:58;19.10;99.90
25410;DHT22;13339;50.840;4.346;2022-09-20T12:08:36;19.00;99.90
25410;DHT22;13339;50.840;4.346;2022-09-20T12:11:09;19.10;99.90
25410;DHT22;13339;50.840;4.346;2022-09-20T12:13:40;18.70;99.90
25410;DHT22;13339;50.840;4.346;2022-09-20T12:16:15;18.80;99.90
25410;DHT22;13339;50.840;4.346;2022-09-20T12:21:20;18.70;99.90
25410;DHT22;13339;50.840;4.346;2022-09-20T12:24:00;18.60;99.90
25410;DHT22;13339;50.840;4.346;2022-09-20T12:28:59;18.60;99.90
25410;DHT22;13339;50.840;4.346;2022-09-20T12:36:36;18.40;99.90
25410;DHT22;13339;50.840;4.346;2022-09-20T12:39:05;18.60;99.90
25410;DHT22;13339;50.840;4.346;2022-09-20T12:41:53;18.70;99.90
25410;DHT22;13339;50.840;4.346;2022-09-20T12:44:35;18.90;99.90
25410;DHT22;13339;50.840;4.346;2022-09-20T12:47:18;18.90;99.90
25410;DHT22;13339;50.840;4.346;2022-09-20T13:05:50;19.90;99.90
25410;DHT22;13339;50.840;4.346;2022-09-20T13:11:41;19.80;99.90
25410;DHT22;13339;50.840;4.346;2022-09-20T13:19:19;19.40;99.90
25410;DHT22;13339;50.840;4.346;2022-09-20T13:22:07;19.10;99.90
25410;DHT22;13339;50.840;4.346;2022-09-20T13:24:43;19.00;99.90
25410;DHT22;13339;50.840;4.346;2022-09-20T13:27:23;19.00;99.90
25410;DHT22;13339;50.840;4.346;2022-09-20T13:29:50;19.00;99.90
25410;DHT22;13339;50.840;4.346;2022-09-20T13:32:23;18.70;99.90
25410;DHT22;13339;50.840;4.346;2022-09-20T13:35:05;18.90;99.90
25410;DHT22;13339;50.840;4.346;2022-09-20T13:37:31;19.00;99.90
25410;DHT22;13339;50.840;4.346;2022-09-20T13:39:58;19.00;99.90
25410;DHT22;13339;50.840;4.346;2022-09-20T13:42:24;19.00;99.90
25410;DHT22;13339;50.840;4.346;2022-09-20T13:44:54;19.00;99.90
25410;DHT22;13339;50.840;4.346;2022-09-20T13:47:28;19.10;99.90
25410;DHT22;13339;50.840;4.346;2022-09-20T13:52:46;19.20;99.90
25410;DHT22;13339;50.840;4.346;2022-09-20T13:55:33;18.90;99.90
25410;DHT22;13339;50.840;4.346;2022-09-20T13:58:05;18.90;99.90
25410;DHT22;13339;50.840;4.346;2022-09-20T14:00:32;19.00;99.90
25410;DHT22;13339;50.840;4.346;2022-09-20T14:02:59;19.00;99.90
25410;DHT22;13339;50.840;4.346;2022-09-20T14:05:28;19.00;99.90
25410;DHT22;13339;50.840;4.346;2022-09-20T14:07:55;18.90;99.90
25410;DHT22;13339;50.840;4.346;2022-09-20T14:10:34;18.80;99.90
25410;DHT22;13339;50.840;4.346;2022-09-20T14:13:04;18.90;99.90
25410;DHT22;13339;50.840;4.346;2022-09-20T14:15:44;19.00;99.90
25410;DHT22;13339;50.840;4.346;2022-09-20T14:18:21;19.10;99.90
25410;DHT22;13339;50.840;4.346;2022-09-20T14:20:47;19.10;99.90
25410;DHT22;13339;50.840;4.346;2022-09-20T14:23:26;19.00;99.90
25410;DHT22;13339;50.840;4.346;2022-09-20T14:28:40;19.00;99.90
25410;DHT22;13339;50.840;4.346;2022-09-20T14:31:12;18.80;99.90
25410;DHT22;13339;50.840;4.346;2022-09-20T14:33:41;18.80;99.90
25410;DHT22;13339;50.840;4.346;2022-09-20T14:36:19;18.70;99.90
25410;DHT22;13339;50.840;4.346;2022-09-20T14:38:46;18.80;99.90
25410;DHT22;13339;50.840;4.346;2022-09-20T14:41:31;19.00;99.90
25410;DHT22;13339;50.840;4.346;2022-09-20T14:43:59;19.10;99.90
25410;DHT22;13339;50.840;4.346;2022-09-20T14:46:34;19.00;99.90
25410;DHT22;13339;50.840;4.346;2022-09-20T14:51:45;19.20;99.90
25410;DHT22;13339;50.840;4.346;2022-09-20T14:56:49;19.20;99.90
25410;DHT22;13339;50.840;4.346;2022-09-20T15:04:32;19.30;99.90
25410;DHT22;13339;50.840;4.346;2022-09-20T15:07:18;19.40;99.90
25410;DHT22;13339;50.840;4.346;2022-09-20T15:09:43;19.40;99.90
25410;DHT22;13339;50.840;4.346;2022-09-20T15:12:17;19.50;99.90
25410;DHT22;13339;50.840;4.346;2022-09-20T15:14:44;19.40;99.90
25410;DHT22;13339;50.840;4.346;2022-09-20T15:17:14;19.20;99.90
25410;DHT22;13339;50.840;4.346;2022-09-20T15:19:40;19.10;99.90
25410;DHT22;13339;50.840;4.346;2022-09-20T15:22:11;19.20;99.90
25410;DHT22;13339;50.840;4.346;2022-09-20T15:24:37;19.10;99.90
25410;DHT22;13339;50.840;4.346;2022-09-20T15:27:03;19.20;99.90
25410;DHT22;13339;50.840;4.346;2022-09-20T15:29:29;19.20;99.90
25410;DHT22;13339;50.840;4.346;2022-09-20T15:31:55;19.10;99.90
25410;DHT22;13339;50.840;4.346;2022-09-20T15:34:20;19.00;99.90
25410;DHT22;13339;50.840;4.346;2022-09-20T15:36:46;18.70;99.90
25410;DHT22;13339;50.840;4.346;2022-09-20T15:39:13;18.70;99.90
25410;DHT22;13339;50.840;4.346;2022-09-20T15:41:38;18.70;99.90
25410;DHT22;13339;50.840;4.346;2022-09-20T15:44:05;18.60;99.90
25410;DHT22;13339;50.840;4.346;2022-09-20T15:46:31;18.50;99.90
25410;DHT22;13339;50.840;4.346;2022-09-20T15:49:01;18.50;99.90
25410;DHT22;13339;50.840;4.346;2022-09-20T15:51:27;18.40;99.90
25410;DHT22;13339;50.840;4.346;2022-09-20T15:53:57;18.30;99.90
25410;DHT22;13339;50.840;4.346;2022-09-20T15:56:31;18.40;99.90
25410;DHT22;13339;50.840;4.346;2022-09-20T15:59:07;18.50;99.90
25410;DHT22;13339;50.840;4.346;2022-09-20T16:01:38;18.60;99.90
25410;DHT22;13339;50.840;4.346;2022-09-20T16:06:35;18.40;99.90
25410;DHT22;13339;50.840;4.346;2022-09-20T16:09:01;18.30;99.90
25410;DHT22;13339;50.840;4.346;2022-09-20T16:11:27;18.10;99.90
25410;DHT22;13339;50.840;4.346;2022-09-20T16:13:54;18.10;99.90
25410;DHT22;13339;50.840;4.346;2022-09-20T16:16:20;18.00;99.90
25410;DHT22;13339;50.840;4.346;2022-09-20T16:18:45;17.80;99.90
25410;DHT22;13339;50.840;4.346;2022-09-20T16:21:30;17.80;99.90
25410;DHT22;13339;50.840;4.346;2022-09-20T16:23:57;17.80;99.90
25410;DHT22;13339;50.840;4.346;2022-09-20T16:26:25;17.90;99.90
25410;DHT22;13339;50.840;4.346;2022-09-20T16:28:51;17.90;99.90
25410;DHT22;13339;50.840;4.346;2022-09-20T16:31:37;17.90;99.90
25410;DHT22;13339;50.840;4.346;2022-09-20T16:34:11;17.80;99.90
25410;DHT22;13339;50.840;4.346;2022-09-20T16:36:37;17.90;99.90
25410;DHT22;13339;50.840;4.346;2022-09-20T16:39:03;18.00;99.90
25410;DHT22;13339;50.840;4.346;2022-09-20T16:41:28;18.00;99.90
25410;DHT22;13339;50.840;4.346;2022-09-20T16:43:56;18.00;99.90
25410;DHT22;13339;50.840;4.346;2022-09-20T16:46:22;17.90;99.90
25410;DHT22;13339;50.840;4.346;2022-09-20T16:48:49;17.90;99.90
25410;DHT22;13339;50.840;4.346;2022-09-20T16:51:17;17.90;99.90
25410;DHT22;13339;50.840;4.346;2022-09-20T16:53:43;17.90;99.90
25410;DHT22;13339;50.840;4.346;2022-09-20T16:56:20;17.80;99.90
25410;DHT22;13339;50.840;4.346;2022-09-20T16:58:46;17.60;99.90
25410;DHT22;13339;50.840;4.346;2022-09-20T17:01:12;17.50;99.90
25410;DHT22;13339;50.840;4.346;2022-09-20T17:03:38;17.40;99.90
25410;DHT22;13339;50.840;4.346;2022-09-20T17:06:06;17.50;99.90
25410;DHT22;13339;50.840;4.346;2022-09-20T17:08:33;17.40;99.90
25410;DHT22;13339;50.840;4.346;2022-09-20T17:11:04;17.50;99.90
25410;DHT22;13339;50.840;4.346;2022-09-20T17:13:30;17.50;99.90
25410;DHT22;13339;50.840;4.346;2022-09-20T17:16:04;17.50;99.90
25410;DHT22;13339;50.840;4.346;2022-09-20T17:18:31;17.50;99.90
25410;DHT22;13339;50.840;4.346;2022-09-20T17:21:05;17.30;99.90
25410;DHT22;13339;50.840;4.346;2022-09-20T17:23:31;17.30;99.90
25410;DHT22;13339;50.840;4.346;2022-09-20T17:28:37;17.30;99.90
25410;DHT22;13339;50.840;4.346;2022-09-20T17:31:04;17.30;99.90
25410;DHT22;13339;50.840;4.346;2022-09-20T17:33:31;17.30;99.90
25410;DHT22;13339;50.840;4.346;2022-09-20T17:35:58;17.30;99.90
25410;DHT22;13339;50.840;4.346;2022-09-20T17:38:28;17.30;99.90
25410;DHT22;13339;50.840;4.346;2022-09-20T17:41:15;17.30;99.90
25410;DHT22;13339;50.840;4.346;2022-09-20T17:43:42;17.20;99.90
25410;DHT22;13339;50.840;4.346;2022-09-20T17:46:19;17.00;99.90
25410;DHT22;13339;50.840;4.346;2022-09-20T17:48:49;17.10;99.90
25410;DHT22;13339;50.840;4.346;2022-09-20T17:51:17;17.10;99.90
25410;DHT22;13339;50.840;4.346;2022-09-20T17:53:44;17.10;99.90
25410;DHT22;13339;50.840;4.346;2022-09-20T17:56:13;17.20;99.90
25410;DHT22;13339;50.840;4.346;2022-09-20T17:58:39;17.20;99.90
25410;DHT22;13339;50.840;4.346;2022-09-20T18:01:11;17.20;99.90
25410;DHT22;13339;50.840;4.346;2022-09-20T18:03:40;17.20;99.90
25410;DHT22;13339;50.840;4.346;2022-09-20T18:06:11;17.10;99.90
25410;DHT22;13339;50.840;4.346;2022-09-20T18:08:38;17.00;99.90
25410;DHT22;13339;50.840;4.346;2022-09-20T18:11:03;17.00;99.90
25410;DHT22;13339;50.840;4.346;2022-09-20T18:13:29;17.00;99.90
25410;DHT22;13339;50.840;4.346;2022-09-20T18:15:55;17.10;99.90
25410;DHT22;13339;50.840;4.346;2022-09-20T18:18:21;17.10;99.90
25410;DHT22;13339;50.840;4.346;2022-09-20T18:20:47;17.00;99.90
25410;DHT22;13339;50.840;4.346;2022-09-20T18:23:13;17.00;99.90
25410;DHT22;13339;50.840;4.346;2022-09-20T18:25:38;17.10;99.90
25410;DHT22;13339;50.840;4.346;2022-09-20T18:28:22;17.00;99.90
25410;DHT22;13339;50.840;4.346;2022-09-20T18:30:58;17.00;99.90
25410;DHT22;13339;50.840;4.346;2022-09-20T18:33:24;17.10;99.90
25410;DHT22;13339;50.840;4.346;2022-09-20T18:35:50;17.10;99.90
25410;DHT22;13339;50.840;4.346;2022-09-20T18:38:16;17.10;99.90
25410;DHT22;13339;50.840;4.346;2022-09-20T18:40:43;17.00;99.90
25410;DHT22;13339;50.840;4.346;2022-09-20T18:43:18;17.00;99.90
25410;DHT22;13339;50.840;4.346;2022-09-20T18:45:49;17.00;99.90
25410;DHT22;13339;50.840;4.346;2022-09-20T18:48:17;17.00;99.90
25410;DHT22;13339;50.840;4.346;2022-09-20T18:51:04;17.00;99.90
25410;DHT22;13339;50.840;4.346;2022-09-20T18:53:31;16.90;99.90
25410;DHT22;13339;50.840;4.346;2022-09-20T18:56:19;16.90;99.90
25410;DHT22;13339;50.840;4.346;2022-09-20T18:58:45;16.90;99.90
25410;DHT22;13339;50.840;4.346;2022-09-20T19:20:33;16.60;99.90
25410;DHT22;13339;50.840;4.346;2022-09-20T19:26:09;16.50;99.90
25410;DHT22;13339;50.840;4.346;2022-09-20T19:28:35;16.50;99.90
25410;DHT22;13339;50.840;4.346;2022-09-20T19:31:01;16.50;99.90
25410;DHT22;13339;50.840;4.346;2022-09-20T19:33:27;16.50;99.90
25410;DHT22;13339;50.840;4.346;2022-09-20T19:35:54;16.40;99.90
25410;DHT22;13339;50.840;4.346;2022-09-20T19:49:09;16.00;99.90
25410;DHT22;13339;50.840;4.346;2022-09-20T19:51:39;16.00;99.90
25410;DHT22;13339;50.840;4.346;2022-09-20T19:54:10;16.00;99.90
25410;DHT22;13339;50.840;4.346;2022-09-20T19:56:56;16.00;99.90
25410;DHT22;13339;50.840;4.346;2022-09-20T19:59:26;16.10;99.90
25410;DHT22;13339;50.840;4.346;2022-09-20T20:01:52;16.20;99.90
25410;DHT22;13339;50.840;4.346;2022-09-20T20:04:19;16.20;99.90
25410;DHT22;13339;50.840;4.346;2022-09-20T20:12:08;16.30;99.90
25410;DHT22;13339;50.840;4.346;2022-09-20T20:14:52;16.20;99.90
25410;DHT22;13339;50.840;4.346;2022-09-20T20:25:56;16.10;99.90
25410;DHT22;13339;50.840;4.346;2022-09-20T20:28:27;16.20;99.90
25410;DHT22;13339;50.840;4.346;2022-09-20T20:30:53;16.10;99.90
25410;DHT22;13339;50.840;4.346;2022-09-20T20:33:19;16.10;99.90
25410;DHT22;13339;50.840;4.346;2022-09-20T20:35:56;16.00;99.90
25410;DHT22;13339;50.840;4.346;2022-09-20T20:38:23;16.10;99.90
25410;DHT22;13339;50.840;4.346;2022-09-20T20:43:34;16.10;99.90
25410;DHT22;13339;50.840;4.346;2022-09-20T20:46:04;16.10;99.90
25410;DHT22;13339;50.840;4.346;2022-09-20T20:48:31;16.10;99.90
25410;DHT22;13339;50.840;4.346;2022-09-20T20:51:04;16.00;99.90
25410;DHT22;13339;50.840;4.346;2022-09-20T20:53:31;15.80;99.90
25410;DHT22;13339;50.840;4.346;2022-09-20T20:56:06;15.80;99.90
25410;DHT22;13339;50.840;4.346;2022-09-20T20:58:36;15.80;99.90
25410;DHT22;13339;50.840;4.346;2022-09-20T21:01:06;15.80;99.90
25410;DHT22;13339;50.840;4.346;2022-09-20T21:03:32;15.80;99.90
25410;DHT22;13339;50.840;4.346;2022-09-20T21:05:58;15.70;99.90
25410;DHT22;13339;50.840;4.346;2022-09-20T21:08:30;15.70;99.90
25410;DHT22;13339;50.840;4.346;2022-09-20T21:11:00;15.80;99.90
25410;DHT22;13339;50.840;4.346;2022-09-20T21:13:26;15.80;99.90
25410;DHT22;13339;50.840;4.346;2022-09-20T21:15:53;15.70;99.90
25410;DHT22;13339;50.840;4.346;2022-09-20T21:18:19;15.80;99.90
25410;DHT22;13339;50.840;4.346;2022-09-20T21:20:44;15.80;99.90
25410;DHT22;13339;50.840;4.346;2022-09-20T21:23:10;15.80;99.90
25410;DHT22;13339;50.840;4.346;2022-09-20T21:25:36;15.60;99.90
25410;DHT22;13339;50.840;4.346;2022-09-20T21:28:01;15.60;99.90
25410;DHT22;13339;50.840;4.346;2022-09-20T21:30:27;15.40;99.90
25410;DHT22;13339;50.840;4.346;2022-09-20T21:32:52;15.40;99.90
25410;DHT22;13339;50.840;4.346;2022-09-20T21:35:20;15.40;99.90
25410;DHT22;13339;50.840;4.346;2022-09-20T21:37:48;15.30;99.90
25410;DHT22;13339;50.840;4.346;2022-09-20T21:40:13;15.40;99.90
25410;DHT22;13339;50.840;4.346;2022-09-20T21:42:39;15.40;99.90
25410;DHT22;13339;50.840;4.346;2022-09-20T21:45:05;15.40;99.90
25410;DHT22;13339;50.840;4.346;2022-09-20T21:47:33;15.40;99.90
25410;DHT22;13339;50.840;4.346;2022-09-20T21:49:59;15.20;99.90
25410;DHT22;13339;50.840;4.346;2022-09-20T21:52:24;15.10;99.90
25410;DHT22;13339;50.840;4.346;2022-09-20T21:54:50;15.10;99.90
25410;DHT22;13339;50.840;4.346;2022-09-20T21:57:16;15.10;99.90